Time;durP1;ratioP1;P1;durP2;ratioP2;P2;SDS_P1;SDS_P2;PMS_P1;PMS_P2;Temp;Humidity;BMP_temperature;BMP_pressure;BME280_temperature;BME280_humidity;BME280_pressure;Samples;Min_cycle;Max_cycle;Signal;HPM_P1;HPM_P2
2023/01/06 00:00:23;;;;;;;5.50;2.13;;;;;;;;;;5281003;28;20020;-70
2023/01/06 00:02:55;;;;;;;4.75;1.95;;;;;;;;;;5281228;28;20143;-69
2023/01/06 00:05:27;;;;;;;4.80;2.22;;;;;;;;;;5280414;28;20009;-69
2023/01/06 00:07:59;;;;;;;3.95;2.03;;;;;;;;;;5280912;28;20168;-69
2023/01/06 00:10:30;;;;;;;4.68;1.92;;;;;;;;;;5280608;28;20071;-68
2023/01/06 00:13:01;;;;;;;4.15;2.10;;;;;;;;;;5280698;28;20399;-69
2023/01/06 00:15:35;;;;;;;3.63;2.10;;;;;;;;;;5281289;28;20096;-69
2023/01/06 00:18:06;;;;;;;5.40;1.88;;;;;;;;;;5283838;28;20055;-70
2023/01/06 00:20:37;;;;;;;5.75;1.88;;;;;;;;;;5284618;28;20040;-70
2023/01/06 00:23:09;;;;;;;6.03;1.25;;;;;;;;;;5285039;28;20146;-69
2023/01/06 00:25:47;;;;;;;5.80;1.40;;;;;;;;;;5283546;28;20032;-70
2023/01/06 00:28:18;;;;;;;3.30;1.00;;;;;;;;;;5284918;28;20275;-69
2023/01/06 00:30:49;;;;;;;4.20;0.80;;;;;;;;;;5284095;28;20500;-70
2023/01/06 00:33:21;;;;;;;5.93;0.90;;;;;;;;;;5283555;28;20502;-69
2023/01/06 00:35:57;;;;;;;2.78;0.80;;;;;;;;;;5284478;28;20009;-68
2023/01/06 00:38:28;;;;;;;6.18;1.02;;;;;;;;;;5284583;28;20027;-69
2023/01/06 00:41:01;;;;;;;4.93;1.08;;;;;;;;;;5283492;28;20012;-69
2023/01/06 00:43:32;;;;;;;4.13;0.90;;;;;;;;;;5284235;28;20016;-69
2023/01/06 00:46:03;;;;;;;2.78;0.63;;;;;;;;;;5283558;28;20030;-70
2023/01/06 00:48:35;;;;;;;5.03;0.90;;;;;;;;;;5283219;28;20029;-69
2023/01/06 00:51:06;;;;;;;3.38;0.70;;;;;;;;;;5283347;28;20021;-69
2023/01/06 00:53:37;;;;;;;2.63;0.80;;;;;;;;;;5282710;28;20024;-70
2023/01/06 00:56:08;;;;;;;3.10;1.10;;;;;;;;;;5283038;28;20021;-70
2023/01/06 00:58:39;;;;;;;3.72;0.80;;;;;;;;;;5282975;28;20028;-70
2023/01/06 01:01:11;;;;;;;2.53;0.73;;;;;;;;;;5283554;28;20016;-70
2023/01/06 01:03:42;;;;;;;3.03;0.60;;;;;;;;;;5283415;28;20023;-70
2023/01/06 01:06:14;;;;;;;2.00;0.70;;;;;;;;;;5284193;28;20024;-69
2023/01/06 01:08:46;;;;;;;3.92;0.90;;;;;;;;;;5281934;28;20673;-69
2023/01/06 01:14:06;;;;;;;2.53;0.80;;;;;;;;;;5280933;28;20024;-69
2023/01/06 01:16:38;;;;;;;5.70;1.08;;;;;;;;;;5281743;28;20021;-70
2023/01/06 01:19:10;;;;;;;4.10;1.20;;;;;;;;;;5282006;28;20028;-70
2023/01/06 01:21:41;;;;;;;2.72;0.80;;;;;;;;;;5280941;28;20396;-70
2023/01/06 01:24:12;;;;;;;4.13;0.90;;;;;;;;;;5282856;28;20081;-69
2023/01/06 01:26:44;;;;;;;2.40;0.65;;;;;;;;;;5283021;28;20020;-69
2023/01/06 01:29:16;;;;;;;5.40;0.80;;;;;;;;;;5282065;28;20032;-69
2023/01/06 01:31:47;;;;;;;1.95;0.60;;;;;;;;;;5282885;28;20021;-69
2023/01/06 01:34:18;;;;;;;3.38;0.60;;;;;;;;;;5283744;28;20021;-69
2023/01/06 01:36:50;;;;;;;3.20;0.50;;;;;;;;;;5282060;28;20094;-70
2023/01/06 01:39:23;;;;;;;5.53;0.60;;;;;;;;;;5283166;28;20464;-70
2023/01/06 01:41:54;;;;;;;3.00;0.57;;;;;;;;;;5283066;28;20025;-69
2023/01/06 01:44:44;;;;;;;3.20;0.40;;;;;;;;;;5282656;28;20023;-70
2023/01/06 01:47:33;;;;;;;2.88;0.73;;;;;;;;;;5283363;28;20024;-69
2023/01/06 01:50:23;;;;;;;2.00;0.30;;;;;;;;;;5281992;28;20123;-69
2023/01/06 01:52:57;;;;;;;3.30;0.60;;;;;;;;;;5282918;28;20036;-70
2023/01/06 01:55:29;;;;;;;2.42;0.40;;;;;;;;;;5282930;28;20452;-70
2023/01/06 01:58:07;;;;;;;3.65;0.40;;;;;;;;;;5282070;28;20016;-70
2023/01/06 02:00:39;;;;;;;2.60;0.68;;;;;;;;;;5282445;28;20050;-70
2023/01/06 02:03:12;;;;;;;3.17;0.30;;;;;;;;;;5282414;28;20020;-69
2023/01/06 02:05:44;;;;;;;4.38;0.40;;;;;;;;;;5282494;28;20151;-69
2023/01/06 02:08:26;;;;;;;2.35;0.38;;;;;;;;;;5282833;28;20055;-69
2023/01/06 02:10:57;;;;;;;2.90;0.50;;;;;;;;;;5281647;28;20020;-69
2023/01/06 02:13:31;;;;;;;1.80;0.30;;;;;;;;;;5282608;28;20036;-70
2023/01/06 02:16:21;;;;;;;3.28;0.35;;;;;;;;;;5282336;28;20259;-69
2023/01/06 02:18:56;;;;;;;2.78;0.50;;;;;;;;;;5281465;28;20061;-69
2023/01/06 02:21:47;;;;;;;2.28;0.30;;;;;;;;;;5282103;28;20020;-70
2023/01/06 02:24:18;;;;;;;1.95;0.30;;;;;;;;;;5281962;28;20016;-69
2023/01/06 02:26:52;;;;;;;2.92;0.40;;;;;;;;;;5281838;28;20081;-69
2023/01/06 02:29:44;;;;;;;4.18;0.40;;;;;;;;;;5282307;28;20607;-70
2023/01/06 02:32:33;;;;;;;3.15;0.30;;;;;;;;;;5281623;28;20107;-69
2023/01/06 02:35:05;;;;;;;1.92;0.20;;;;;;;;;;5281950;28;20025;-69
2023/01/06 02:37:55;;;;;;;3.15;0.30;;;;;;;;;;5281986;28;20021;-70
2023/01/06 02:40:26;;;;;;;2.38;0.40;;;;;;;;;;5280986;28;20913;-70
2023/01/06 02:43:00;;;;;;;1.08;0.40;;;;;;;;;;5282282;28;20127;-69
2023/01/06 02:45:54;;;;;;;1.85;0.20;;;;;;;;;;5281229;28;20021;-69
2023/01/06 02:48:32;;;;;;;2.85;0.30;;;;;;;;;;5273558;28;20055;-69
2023/01/06 02:51:14;;;;;;;1.67;0.20;;;;;;;;;;5281846;28;20177;-69
2023/01/06 02:54:03;;;;;;;0.90;0.20;;;;;;;;;;5280883;28;20032;-69
2023/01/06 02:56:38;;;;;;;2.00;0.30;;;;;;;;;;5281840;28;20029;-70
2023/01/06 02:59:12;;;;;;;1.90;0.20;;;;;;;;;;5281969;28;20020;-69
2023/01/06 03:01:45;;;;;;;2.58;0.20;;;;;;;;;;5280783;28;20013;-70
2023/01/06 03:04:19;;;;;;;3.15;0.30;;;;;;;;;;5282119;28;20028;-69
2023/01/06 03:06:51;;;;;;;1.63;0.20;;;;;;;;;;5280728;28;20024;-70
2023/01/06 03:09:26;;;;;;;1.98;0.25;;;;;;;;;;5281622;28;20349;-69
2023/01/06 03:11:59;;;;;;;1.73;0.20;;;;;;;;;;5281692;28;20023;-69
2023/01/06 03:14:43;;;;;;;1.50;0.20;;;;;;;;;;5280921;28;20045;-69
2023/01/06 03:17:14;;;;;;;2.05;0.25;;;;;;;;;;5281963;28;20017;-69
2023/01/06 03:19:45;;;;;;;1.42;0.35;;;;;;;;;;5281220;28;20103;-70
2023/01/06 03:22:17;;;;;;;2.97;0.30;;;;;;;;;;5281168;28;20020;-69
2023/01/06 03:24:48;;;;;;;2.75;0.30;;;;;;;;;;5281009;28;20025;-70
2023/01/06 03:27:22;;;;;;;2.58;0.20;;;;;;;;;;5281734;28;20040;-70
2023/01/06 03:29:53;;;;;;;0.80;0.20;;;;;;;;;;5280476;28;20020;-69
2023/01/06 03:32:32;;;;;;;2.80;0.30;;;;;;;;;;5281074;28;20031;-70
2023/01/06 03:35:13;;;;;;;2.70;0.20;;;;;;;;;;5280548;28;20017;-70
2023/01/06 03:38:03;;;;;;;2.25;0.30;;;;;;;;;;5280997;28;20457;-70
2023/01/06 03:40:51;;;;;;;1.60;0.30;;;;;;;;;;5281254;28;20388;-70
2023/01/06 03:43:26;;;;;;;2.45;0.20;;;;;;;;;;5280647;28;20024;-70
2023/01/06 03:46:00;;;;;;;4.43;0.30;;;;;;;;;;5281405;28;20027;-69
2023/01/06 03:48:31;;;;;;;1.52;0.40;;;;;;;;;;5280978;28;20044;-70
2023/01/06 03:51:02;;;;;;;2.67;0.20;;;;;;;;;;5281693;28;20029;-70
2023/01/06 03:53:38;;;;;;;3.08;0.73;;;;;;;;;;5285178;28;20291;-70
2023/01/06 03:56:22;;;;;;;3.40;0.20;;;;;;;;;;5284751;28;20324;-70
2023/01/06 03:58:57;;;;;;;3.28;0.20;;;;;;;;;;5283880;28;20024;-70
2023/01/06 04:01:28;;;;;;;2.03;0.28;;;;;;;;;;5285057;28;20021;-69
2023/01/06 04:04:01;;;;;;;1.83;0.35;;;;;;;;;;5284506;28;20152;-70
2023/01/06 04:06:32;;;;;;;1.75;0.30;;;;;;;;;;5285397;28;20104;-70
2023/01/06 04:09:03;;;;;;;1.02;0.25;;;;;;;;;;5285167;28;20017;-70
2023/01/06 04:14:24;;;;;;;1.98;0.20;;;;;;;;;;5284851;28;20025;-70
2023/01/06 04:16:55;;;;;;;2.95;0.22;;;;;;;;;;5284174;28;20032;-70
2023/01/06 04:19:26;;;;;;;1.45;0.20;;;;;;;;;;5284863;28;20021;-70
2023/01/06 04:21:58;;;;;;;1.90;0.25;;;;;;;;;;5284839;28;20055;-70
2023/01/06 04:24:29;;;;;;;3.50;0.40;;;;;;;;;;5283807;28;20023;-70
2023/01/06 04:27:00;;;;;;;1.33;0.20;;;;;;;;;;5284841;28;20020;-70
2023/01/06 04:29:31;;;;;;;0.95;0.20;;;;;;;;;;5284708;28;20100;-69
2023/01/06 04:32:02;;;;;;;1.88;0.20;;;;;;;;;;5283790;28;20032;-70
2023/01/06 04:34:34;;;;;;;1.60;0.30;;;;;;;;;;5284610;28;20100;-70
2023/01/06 04:37:05;;;;;;;1.20;0.22;;;;;;;;;;5284417;28;20028;-69
2023/01/06 04:39:36;;;;;;;0.70;0.10;;;;;;;;;;5283876;28;20023;-70
2023/01/06 04:42:07;;;;;;;0.70;0.20;;;;;;;;;;5284271;28;20028;-70
2023/01/06 04:44:38;;;;;;;1.02;0.17;;;;;;;;;;5284154;28;20479;-71
2023/01/06 04:47:10;;;;;;;0.68;0.17;;;;;;;;;;5283713;28;20102;-69
2023/01/06 04:49:41;;;;;;;1.25;0.20;;;;;;;;;;5283692;28;20049;-69
2023/01/06 04:52:12;;;;;;;1.00;0.20;;;;;;;;;;5283538;28;20040;-69
2023/01/06 04:54:43;;;;;;;1.30;0.10;;;;;;;;;;5283880;28;20035;-69
2023/01/06 04:57:14;;;;;;;1.23;0.10;;;;;;;;;;5284407;28;20365;-69
2023/01/06 04:59:45;;;;;;;0.55;0.10;;;;;;;;;;5283011;28;20013;-69
2023/01/06 05:02:17;;;;;;;1.40;0.10;;;;;;;;;;5283059;28;20027;-68
2023/01/06 05:04:48;;;;;;;1.95;0.15;;;;;;;;;;5283502;28;20017;-68
2023/01/06 05:07:19;;;;;;;1.63;0.10;;;;;;;;;;5283343;28;20044;-68
2023/01/06 05:09:50;;;;;;;1.88;0.35;;;;;;;;;;5283637;28;20487;-69
2023/01/06 05:12:21;;;;;;;0.85;0.10;;;;;;;;;;5283728;28;20028;-69
2023/01/06 05:14:52;;;;;;;1.33;0.10;;;;;;;;;;5283247;28;20025;-69
2023/01/06 05:17:24;;;;;;;1.52;0.10;;;;;;;;;;5283809;28;20035;-70
2023/01/06 05:19:55;;;;;;;2.80;0.20;;;;;;;;;;5283731;28;20043;-68
2023/01/06 05:22:26;;;;;;;1.27;0.10;;;;;;;;;;5282731;28;20028;-68
2023/01/06 05:24:57;;;;;;;1.00;0.10;;;;;;;;;;5283513;28;20112;-69
2023/01/06 05:27:29;;;;;;;1.40;0.10;;;;;;;;;;5282953;28;20375;-69
2023/01/06 05:30:00;;;;;;;0.98;0.10;;;;;;;;;;5283424;28;20021;-69
2023/01/06 05:32:31;;;;;;;0.45;0.10;;;;;;;;;;5283173;28;20031;-69
2023/01/06 05:35:02;;;;;;;1.13;0.17;;;;;;;;;;5282643;28;20088;-69
2023/01/06 05:37:34;;;;;;;1.38;0.20;;;;;;;;;;5283176;28;20032;-68
2023/01/06 05:40:06;;;;;;;1.67;0.20;;;;;;;;;;5283344;28;20062;-69
2023/01/06 05:42:37;;;;;;;0.47;0.10;;;;;;;;;;5282571;28;20017;-70
2023/01/06 05:45:08;;;;;;;1.33;0.13;;;;;;;;;;5283070;28;20100;-70
2023/01/06 05:47:40;;;;;;;1.25;0.10;;;;;;;;;;5282624;28;20266;-69
2023/01/06 05:50:11;;;;;;;2.00;0.10;;;;;;;;;;5282277;28;20063;-69
2023/01/06 05:52:42;;;;;;;1.95;0.20;;;;;;;;;;5282810;28;20040;-69
2023/01/06 05:55:14;;;;;;;1.35;0.20;;;;;;;;;;5282394;28;20020;-69
2023/01/06 05:57:45;;;;;;;1.00;0.10;;;;;;;;;;5282566;28;20037;-69
2023/01/06 06:00:16;;;;;;;1.80;0.20;;;;;;;;;;5283010;28;20028;-69
2023/01/06 06:02:47;;;;;;;1.45;0.20;;;;;;;;;;5281558;28;20024;-69
2023/01/06 06:05:18;;;;;;;0.90;0.10;;;;;;;;;;5283195;28;20031;-69
2023/01/06 06:07:54;;;;;;;1.20;0.20;;;;;;;;;;5282239;28;20112;-69
2023/01/06 06:10:25;;;;;;;1.00;0.10;;;;;;;;;;5281732;28;20116;-69
2023/01/06 06:12:56;;;;;;;0.60;0.20;;;;;;;;;;5282295;28;20538;-71
2023/01/06 06:15:27;;;;;;;1.77;0.20;;;;;;;;;;5282401;28;20021;-69
2023/01/06 06:18:00;;;;;;;2.05;0.25;;;;;;;;;;5281772;28;20060;-70
2023/01/06 06:20:31;;;;;;;0.75;0.20;;;;;;;;;;5282506;28;20020;-69
2023/01/06 06:23:02;;;;;;;0.82;0.17;;;;;;;;;;5282227;28;20024;-70
2023/01/06 06:25:33;;;;;;;1.42;0.35;;;;;;;;;;5281713;28;20269;-70
2023/01/06 06:28:04;;;;;;;2.22;0.28;;;;;;;;;;5282414;28;20028;-70
2023/01/06 06:30:36;;;;;;;0.82;0.20;;;;;;;;;;5281565;28;20597;-70
2023/01/06 06:33:07;;;;;;;2.13;0.20;;;;;;;;;;5282143;28;20036;-69
2023/01/06 06:35:38;;;;;;;0.93;0.17;;;;;;;;;;5282003;28;20103;-68
2023/01/06 06:38:09;;;;;;;1.98;0.30;;;;;;;;;;5281421;28;20028;-69
2023/01/06 06:40:42;;;;;;;0.80;0.20;;;;;;;;;;5281720;28;20063;-69
2023/01/06 06:43:13;;;;;;;2.13;0.20;;;;;;;;;;5282239;28;20078;-69
2023/01/06 06:45:45;;;;;;;0.63;0.10;;;;;;;;;;5280951;28;20028;-69
2023/01/06 06:48:16;;;;;;;0.85;0.17;;;;;;;;;;5282192;28;20020;-70
2023/01/06 06:50:54;;;;;;;0.73;0.15;;;;;;;;;;5281348;28;20060;-70
2023/01/06 06:53:26;;;;;;;1.47;0.20;;;;;;;;;;5280916;28;20056;-70
2023/01/06 06:55:57;;;;;;;1.05;0.20;;;;;;;;;;5281924;28;20310;-69
2023/01/06 06:58:28;;;;;;;0.73;0.10;;;;;;;;;;5281030;28;20091;-69
2023/01/06 07:01:06;;;;;;;2.15;0.20;;;;;;;;;;5281638;28;20126;-69
2023/01/06 07:03:37;;;;;;;1.13;0.20;;;;;;;;;;5281742;28;20036;-70
2023/01/06 07:06:10;;;;;;;1.77;0.30;;;;;;;;;;5281037;28;20020;-70
2023/01/06 07:08:43;;;;;;;1.83;0.20;;;;;;;;;;5281339;28;20036;-69
2023/01/06 07:11:14;;;;;;;1.08;0.20;;;;;;;;;;5282018;28;20047;-71
2023/01/06 07:13:45;;;;;;;2.17;0.20;;;;;;;;;;5280402;28;20480;-69
2023/01/06 07:16:18;;;;;;;1.00;0.20;;;;;;;;;;5282010;28;20435;-70
2023/01/06 07:18:49;;;;;;;0.30;0.17;;;;;;;;;;5281324;28;20017;-70
2023/01/06 07:21:20;;;;;;;1.40;0.20;;;;;;;;;;5280855;28;20380;-70
2023/01/06 07:23:52;;;;;;;0.90;0.30;;;;;;;;;;5280848;28;20055;-69
2023/01/06 07:26:23;;;;;;;1.63;0.20;;;;;;;;;;5282378;28;20021;-70
2023/01/06 07:28:54;;;;;;;0.77;0.20;;;;;;;;;;5284281;28;20036;-70
2023/01/06 07:31:25;;;;;;;1.27;0.20;;;;;;;;;;5285330;28;20528;-69
2023/01/06 07:33:56;;;;;;;0.65;0.20;;;;;;;;;;5284817;28;20025;-70
2023/01/06 07:36:27;;;;;;;1.58;0.25;;;;;;;;;;5285501;28;20024;-71
2023/01/06 07:38:59;;;;;;;0.82;0.30;;;;;;;;;;5285490;28;20115;-71
2023/01/06 07:41:30;;;;;;;1.70;0.30;;;;;;;;;;5284885;28;20463;-70
2023/01/06 07:44:01;;;;;;;1.00;0.22;;;;;;;;;;5285529;28;20024;-70
2023/01/06 07:46:32;;;;;;;0.73;0.30;;;;;;;;;;5284973;28;20025;-71
2023/01/06 07:49:04;;;;;;;1.17;0.20;;;;;;;;;;5284569;28;20575;-70
2023/01/06 07:51:35;;;;;;;1.27;0.20;;;;;;;;;;5285290;28;20086;-70
2023/01/06 07:54:06;;;;;;;1.10;0.30;;;;;;;;;;5285166;28;20031;-71
2023/01/06 07:56:37;;;;;;;1.75;0.30;;;;;;;;;;5284175;28;20097;-70
2023/01/06 07:59:08;;;;;;;0.95;0.20;;;;;;;;;;5285061;28;20052;-71
2023/01/06 08:01:40;;;;;;;1.38;0.20;;;;;;;;;;5284525;28;20142;-70
2023/01/06 08:04:11;;;;;;;2.25;0.30;;;;;;;;;;5284239;28;20024;-70
2023/01/06 08:06:42;;;;;;;2.50;0.60;;;;;;;;;;5284490;28;20476;-71
2023/01/06 08:09:13;;;;;;;1.38;0.20;;;;;;;;;;5284419;28;20373;-71
2023/01/06 08:11:44;;;;;;;0.52;0.20;;;;;;;;;;5284392;28;20062;-70
2023/01/06 08:14:16;;;;;;;1.00;0.20;;;;;;;;;;5285220;28;20025;-69
2023/01/06 08:16:47;;;;;;;0.68;0.30;;;;;;;;;;5283678;28;20024;-69
2023/01/06 08:19:18;;;;;;;0.70;0.20;;;;;;;;;;5284747;28;20100;-70
2023/01/06 08:21:49;;;;;;;0.90;0.25;;;;;;;;;;5284165;28;20029;-70
2023/01/06 08:24:20;;;;;;;1.10;0.20;;;;;;;;;;5283959;28;20021;-71
2023/01/06 08:26:51;;;;;;;0.95;0.22;;;;;;;;;;5284734;28;20024;-69
2023/01/06 08:29:23;;;;;;;1.25;0.20;;;;;;;;;;5284371;28;20029;-71
2023/01/06 08:31:54;;;;;;;0.50;0.20;;;;;;;;;;5283505;28;20494;-70
2023/01/06 08:34:26;;;;;;;1.27;0.20;;;;;;;;;;5284294;28;20024;-70
2023/01/06 08:36:57;;;;;;;0.68;0.25;;;;;;;;;;5283154;28;20458;-71
2023/01/06 08:39:28;;;;;;;0.77;0.22;;;;;;;;;;5284226;28;20028;-71
2023/01/06 08:41:59;;;;;;;0.88;0.40;;;;;;;;;;5284292;28;20020;-71
2023/01/06 08:44:30;;;;;;;0.30;0.20;;;;;;;;;;5283528;28;20032;-71
2023/01/06 08:47:02;;;;;;;1.23;0.40;;;;;;;;;;5284046;28;20222;-70
2023/01/06 08:49:33;;;;;;;1.50;0.30;;;;;;;;;;5284007;28;20049;-70
2023/01/06 08:52:04;;;;;;;0.77;0.30;;;;;;;;;;5283182;28;20036;-70
2023/01/06 08:54:35;;;;;;;1.85;0.30;;;;;;;;;;5283994;28;20468;-70
2023/01/06 08:57:07;;;;;;;0.40;0.20;;;;;;;;;;5283614;28;20069;-71
2023/01/06 08:59:39;;;;;;;1.33;0.40;;;;;;;;;;5282552;28;20021;-70
2023/01/06 09:02:10;;;;;;;0.55;0.30;;;;;;;;;;5283849;28;20392;-70
2023/01/06 09:04:41;;;;;;;1.75;0.40;;;;;;;;;;5283618;28;20016;-71
2023/01/06 09:07:12;;;;;;;0.93;0.50;;;;;;;;;;5283421;28;20048;-70
2023/01/06 09:09:44;;;;;;;1.08;0.55;;;;;;;;;;5283150;28;20177;-70
2023/01/06 09:12:15;;;;;;;1.08;0.50;;;;;;;;;;5283005;28;20016;-70
2023/01/06 09:14:46;;;;;;;0.68;0.43;;;;;;;;;;5283619;28;20025;-71
2023/01/06 09:17:17;;;;;;;0.98;0.50;;;;;;;;;;5283996;28;20023;-70
2023/01/06 09:19:48;;;;;;;2.22;0.80;;;;;;;;;;5282457;28;20032;-69
2023/01/06 09:22:20;;;;;;;1.08;0.60;;;;;;;;;;5283892;28;20031;-71
2023/01/06 09:24:51;;;;;;;2.17;0.80;;;;;;;;;;5283172;28;20074;-71
2023/01/06 09:27:22;;;;;;;1.05;0.57;;;;;;;;;;5282567;28;20461;-71
2023/01/06 09:29:53;;;;;;;1.90;0.70;;;;;;;;;;5283429;28;20420;-71
2023/01/06 09:32:24;;;;;;;1.48;0.60;;;;;;;;;;5283308;28;20043;-68
2023/01/06 09:34:55;;;;;;;1.50;0.68;;;;;;;;;;5282483;28;20025;-71
2023/01/06 09:37:27;;;;;;;1.35;0.70;;;;;;;;;;5283432;28;20388;-71
2023/01/06 09:39:58;;;;;;;1.15;0.52;;;;;;;;;;5283529;28;20952;-73
2023/01/06 09:42:36;;;;;;;1.95;0.68;;;;;;;;;;5282814;28;20075;-69
2023/01/06 09:45:15;;;;;;;2.03;1.20;;;;;;;;;;5283092;28;20074;-69
2023/01/06 09:47:46;;;;;;;;;;;;;;;;;;5282222;28;20020;-69
2023/01/06 09:50:28;;;;;;;4.13;0.80;;;;;;;;;;5282340;28;20283;-70
2023/01/06 09:53:19;;;;;;;1.48;0.70;;;;;;;;;;5282701;28;20068;-69
2023/01/06 09:55:52;;;;;;;2.85;0.80;;;;;;;;;;5281209;28;20534;-70
2023/01/06 09:58:26;;;;;;;2.97;1.00;;;;;;;;;;5282632;28;20048;-70
2023/01/06 10:01:00;;;;;;;2.15;0.88;;;;;;;;;;5282009;28;20020;-69
2023/01/06 10:03:31;;;;;;;2.00;0.85;;;;;;;;;;5279793;28;20471;-69
2023/01/06 10:06:21;;;;;;;2.53;0.85;;;;;;;;;;5280391;28;20024;-69
2023/01/06 10:09:01;;;;;;;2.10;0.80;;;;;;;;;;5280043;28;20375;-69
2023/01/06 10:11:48;;;;;;;4.10;1.20;;;;;;;;;;5280334;28;20408;-69
2023/01/06 10:14:38;;;;;;;2.13;0.73;;;;;;;;;;5280653;28;20021;-69
2023/01/06 10:17:38;;;;;;;1.70;0.70;;;;;;;;;;5280966;28;20025;-69
2023/01/06 10:20:15;;;;;;;1.38;0.75;;;;;;;;;;5269259;28;20036;-69
2023/01/06 10:23:10;;;;;;;1.70;0.70;;;;;;;;;;5281093;28;20017;-69
2023/01/06 10:25:49;;;;;;;2.20;0.70;;;;;;;;;;5273622;28;20123;-69
2023/01/06 10:28:28;;;;;;;2.75;0.90;;;;;;;;;;5282380;28;20017;-70
2023/01/06 10:30:59;;;;;;;;;;;;;;;;;;5281743;28;20020;-69
2023/01/06 10:33:33;;;;;;;1.10;0.60;;;;;;;;;;5281996;28;19919;-69
2023/01/06 10:36:09;;;;;;;3.95;0.90;;;;;;;;;;5282197;28;20090;-69
2023/01/06 10:38:49;;;;;;;3.58;0.75;;;;;;;;;;5281186;28;20070;-70
2023/01/06 10:41:24;;;;;;;1.10;0.60;;;;;;;;;;5282004;28;20027;-70
2023/01/06 10:43:56;;;;;;;2.65;0.80;;;;;;;;;;5281262;28;20020;-69
2023/01/06 10:46:31;;;;;;;2.25;1.15;;;;;;;;;;5281942;28;20020;-70
2023/01/06 10:49:03;;;;;;;2.75;0.70;;;;;;;;;;5281673;28;20036;-70
2023/01/06 10:51:36;;;;;;;3.30;1.35;;;;;;;;;;5280880;28;20024;-70
2023/01/06 10:54:10;;;;;;;3.22;1.88;;;;;;;;;;5282004;28;20042;-70
2023/01/06 10:56:44;;;;;;;3.90;1.67;;;;;;;;;;5281759;28;20032;-70
2023/01/06 10:59:15;;;;;;;4.55;2.00;;;;;;;;;;5281290;28;20056;-70
2023/01/06 11:01:51;;;;;;;3.97;1.80;;;;;;;;;;5281326;28;20110;-70
2023/01/06 11:04:23;;;;;;;4.18;2.13;;;;;;;;;;5281540;28;20130;-70
2023/01/06 11:06:59;;;;;;;3.78;2.50;;;;;;;;;;5281030;28;20021;-69
2023/01/06 11:09:40;;;;;;;3.90;2.60;;;;;;;;;;5281693;28;20028;-70
2023/01/06 11:12:20;;;;;;;6.35;2.83;;;;;;;;;;5281163;28;20029;-70
2023/01/06 11:15:01;;;;;;;5.07;2.58;;;;;;;;;;5281295;28;20077;-70
2023/01/06 11:17:33;;;;;;;4.80;2.80;;;;;;;;;;5281537;28;20048;-70
2023/01/06 11:20:27;;;;;;;6.00;3.33;;;;;;;;;;5280930;28;20041;-71
2023/01/06 11:23:25;;;;;;;3.67;3.17;;;;;;;;;;5273135;28;20028;-70
2023/01/06 11:26:01;;;;;;;4.43;2.70;;;;;;;;;;5278045;28;20029;-69
2023/01/06 11:28:32;;;;;;;3.28;2.67;;;;;;;;;;5281759;28;20016;-69
2023/01/06 11:31:08;;;;;;;3.95;2.00;;;;;;;;;;5281650;28;20429;-70
2023/01/06 11:33:47;;;;;;;4.95;1.75;;;;;;;;;;5280227;28;20025;-70
2023/01/06 11:36:19;;;;;;;3.25;1.38;;;;;;;;;;5281677;28;20021;-69
2023/01/06 11:38:55;;;;;;;3.75;1.17;;;;;;;;;;5281100;28;20385;-70
2023/01/06 11:41:32;;;;;;;4.13;1.42;;;;;;;;;;5280690;28;20495;-70
2023/01/06 11:44:08;;;;;;;3.80;1.40;;;;;;;;;;5281542;28;20017;-70
2023/01/06 11:46:45;;;;;;;5.38;1.38;;;;;;;;;;5281466;28;20468;-70
2023/01/06 11:49:23;;;;;;;4.38;1.27;;;;;;;;;;5280882;28;20110;-70
2023/01/06 11:52:03;;;;;;;2.85;1.00;;;;;;;;;;5281181;28;20047;-70
2023/01/06 11:54:38;;;;;;;3.38;1.08;;;;;;;;;;5280378;28;20027;-71
2023/01/06 11:57:19;;;;;;;3.58;1.00;;;;;;;;;;5281772;28;20023;-70
2023/01/06 11:59:56;;;;;;;7.15;1.17;;;;;;;;;;5281107;28;20025;-69
2023/01/06 12:02:36;;;;;;;4.57;1.15;;;;;;;;;;5280487;28;20467;-69
2023/01/06 12:05:15;;;;;;;2.65;0.80;;;;;;;;;;5281080;28;20050;-69
2023/01/06 12:07:49;;;;;;;4.40;0.80;;;;;;;;;;5281076;28;20035;-69
2023/01/06 12:10:23;;;;;;;4.10;0.70;;;;;;;;;;5280226;28;20027;-70
2023/01/06 12:12:54;;;;;;;5.05;0.88;;;;;;;;;;5283228;28;20082;-68
2023/01/06 12:15:27;;;;;;;1.85;0.60;;;;;;;;;;5284161;28;20017;-69
2023/01/06 12:18:10;;;;;;;2.92;0.60;;;;;;;;;;5285155;28;20087;-69
2023/01/06 12:20:45;;;;;;;6.10;1.60;;;;;;;;;;5284417;28;20020;-69
2023/01/06 12:23:22;;;;;;;4.45;0.90;;;;;;;;;;5284135;28;20525;-69
2023/01/06 12:25:59;;;;;;;3.33;1.00;;;;;;;;;;5284619;28;20025;-69
2023/01/06 12:28:33;;;;;;;4.18;1.23;;;;;;;;;;5284874;28;20025;-69
2023/01/06 12:31:17;;;;;;;5.63;1.52;;;;;;;;;;5284003;28;20024;-69
2023/01/06 12:33:56;;;;;;;4.13;2.17;;;;;;;;;;5284399;28;20024;-69
2023/01/06 12:36:36;;;;;;;4.40;1.90;;;;;;;;;;5283782;28;20082;-70
2023/01/06 12:39:24;;;;;;;6.85;2.28;;;;;;;;;;5284536;28;20052;-69
2023/01/06 12:42:13;;;;;;;5.95;2.13;;;;;;;;;;5284392;28;20020;-69
2023/01/06 12:44:53;;;;;;;4.18;2.15;;;;;;;;;;5283196;28;20016;-70
2023/01/06 12:47:30;;;;;;;4.35;2.38;;;;;;;;;;5284608;28;20048;-70
2023/01/06 12:50:05;;;;;;;7.53;2.88;;;;;;;;;;5283987;28;20377;-69
2023/01/06 12:52:39;;;;;;;4.15;2.75;;;;;;;;;;5283487;28;20032;-69
2023/01/06 12:55:17;;;;;;;6.20;2.47;;;;;;;;;;5284349;28;20045;-70
2023/01/06 12:57:51;;;;;;;3.70;2.92;;;;;;;;;;5282828;28;20031;-70
2023/01/06 13:00:28;;;;;;;6.18;2.95;;;;;;;;;;5284406;28;20160;-69
2023/01/06 13:03:14;;;;;;;5.68;2.55;;;;;;;;;;5284191;28;20451;-70
2023/01/06 13:05:57;;;;;;;5.28;2.65;;;;;;;;;;5282978;28;20387;-69
2023/01/06 13:08:47;;;;;;;6.95;1.88;;;;;;;;;;5284040;28;20386;-70
2023/01/06 13:11:41;;;;;;;4.93;1.38;;;;;;;;;;5283330;28;20349;-70
2023/01/06 13:14:24;;;;;;;3.13;1.30;;;;;;;;;;5284059;28;20028;-69
2023/01/06 13:17:09;;;;;;;3.33;0.88;;;;;;;;;;5283697;28;20024;-70
2023/01/06 13:20:01;;;;;;;2.30;0.60;;;;;;;;;;5282786;28;20017;-69
2023/01/06 13:22:46;;;;;;;1.80;0.50;;;;;;;;;;5283831;28;20038;-69
2023/01/06 13:25:26;;;;;;;2.35;0.60;;;;;;;;;;5282799;28;20084;-69
2023/01/06 13:28:07;;;;;;;4.00;0.65;;;;;;;;;;5283392;28;20206;-69
2023/01/06 13:30:57;;;;;;;4.07;0.50;;;;;;;;;;5283290;28;20459;-69
2023/01/06 13:33:34;;;;;;;2.15;0.30;;;;;;;;;;5282603;28;20033;-69
2023/01/06 13:36:14;;;;;;;2.95;0.40;;;;;;;;;;5283195;28;20024;-69
2023/01/06 13:39:05;;;;;;;2.50;0.43;;;;;;;;;;5282879;28;20028;-70
2023/01/06 13:41:38;;;;;;;2.25;0.30;;;;;;;;;;5281853;28;20468;-70
2023/01/06 13:44:15;;;;;;;1.33;0.30;;;;;;;;;;5283483;28;20056;-70
2023/01/06 13:46:48;;;;;;;2.05;0.60;;;;;;;;;;5282085;28;20024;-70
2023/01/06 13:49:19;;;;;;;2.65;0.35;;;;;;;;;;5282996;28;20143;-70
2023/01/06 13:51:52;;;;;;;1.58;0.30;;;;;;;;;;5283038;28;20379;-70
2023/01/06 13:54:38;;;;;;;2.42;0.30;;;;;;;;;;5282100;28;20020;-70
2023/01/06 13:57:18;;;;;;;1.63;0.30;;;;;;;;;;5282955;28;20051;-70
2023/01/06 13:59:50;;;;;;;2.25;0.38;;;;;;;;;;5282685;28;20029;-70
2023/01/06 14:02:34;;;;;;;3.22;0.30;;;;;;;;;;5281905;28;20012;-70
2023/01/06 14:05:06;;;;;;;2.50;0.30;;;;;;;;;;5282598;28;20070;-70
2023/01/06 14:07:38;;;;;;;2.30;0.30;;;;;;;;;;5281757;28;20021;-70
2023/01/06 14:10:28;;;;;;;2.25;0.30;;;;;;;;;;5282705;28;20054;-70
2023/01/06 14:13:00;;;;;;;2.72;0.40;;;;;;;;;;5282657;28;20032;-70
2023/01/06 14:15:33;;;;;;;2.30;0.30;;;;;;;;;;5281787;28;20017;-70
2023/01/06 14:18:04;;;;;;;3.05;0.40;;;;;;;;;;5282336;28;20027;-70
2023/01/06 14:20:36;;;;;;;3.90;0.50;;;;;;;;;;5282577;28;20012;-69
2023/01/06 14:23:13;;;;;;;2.45;0.40;;;;;;;;;;5281667;28;20063;-69
2023/01/06 14:25:48;;;;;;;3.65;0.40;;;;;;;;;;5281991;28;20025;-70
2023/01/06 14:28:19;;;;;;;1.65;0.40;;;;;;;;;;5282703;28;20484;-70
2023/01/06 14:30:51;;;;;;;1.98;0.40;;;;;;;;;;5281109;28;20025;-70
2023/01/06 14:33:28;;;;;;;1.50;0.35;;;;;;;;;;5282366;28;20322;-70
2023/01/06 14:36:25;;;;;;;3.10;0.40;;;;;;;;;;5281164;28;20024;-70
2023/01/06 14:38:58;;;;;;;3.65;0.50;;;;;;;;;;5278706;28;20024;-70
2023/01/06 14:41:42;;;;;;;1.45;0.40;;;;;;;;;;5282245;28;20017;-69
2023/01/06 14:44:17;;;;;;;1.55;0.40;;;;;;;;;;5281649;28;20021;-69
2023/01/06 14:46:57;;;;;;;2.80;0.50;;;;;;;;;;5281692;28;20062;-70
2023/01/06 14:49:52;;;;;;;2.60;0.40;;;;;;;;;;5277948;28;20397;-70
2023/01/06 14:52:30;;;;;;;1.73;0.30;;;;;;;;;;5281951;28;20036;-70
2023/01/06 14:55:05;;;;;;;1.00;0.40;;;;;;;;;;5281957;28;20012;-70
2023/01/06 14:57:38;;;;;;;1.33;0.40;;;;;;;;;;5281042;28;20025;-69
2023/01/06 15:00:09;;;;;;;2.58;0.50;;;;;;;;;;5281921;28;20024;-70
2023/01/06 15:02:45;;;;;;;1.83;0.50;;;;;;;;;;5281792;28;20364;-70
2023/01/06 15:05:18;;;;;;;1.13;0.30;;;;;;;;;;5281405;28;20259;-70
2023/01/06 15:08:03;;;;;;;1.17;0.35;;;;;;;;;;5281314;28;20035;-69
2023/01/06 15:10:37;;;;;;;0.80;0.52;;;;;;;;;;5281791;28;20017;-69
2023/01/06 15:13:21;;;;;;;1.52;0.40;;;;;;;;;;5280709;28;20082;-69
2023/01/06 15:15:55;;;;;;;0.60;0.30;;;;;;;;;;5281843;28;20013;-69
2023/01/06 15:18:26;;;;;;;1.70;0.30;;;;;;;;;;5280886;28;20012;-69
2023/01/06 15:20:57;;;;;;;0.52;0.20;;;;;;;;;;5281611;28;20464;-68
2023/01/06 15:23:28;;;;;;;0.80;0.28;;;;;;;;;;5281511;28;20017;-69
2023/01/06 15:26:00;;;;;;;0.95;0.40;;;;;;;;;;5280522;28;20460;-68
2023/01/06 15:28:32;;;;;;;0.82;0.40;;;;;;;;;;5281565;28;20384;-69
2023/01/06 15:31:03;;;;;;;1.48;0.38;;;;;;;;;;5281308;28;20032;-70
2023/01/06 15:33:37;;;;;;;0.85;0.40;;;;;;;;;;5280833;28;20430;-69